sensor_id;sensor_type;location;lat;lon;timestamp;temperature;humidity
27823;DHT22;29019;47.630;8.262;2022-10-16T00:00:53;20.70;54.30
27823;DHT22;29019;47.630;8.262;2022-10-16T00:04:53;20.70;54.30
27823;DHT22;29019;47.630;8.262;2022-10-16T00:08:55;20.60;54.20
27823;DHT22;29019;47.630;8.262;2022-10-16T00:12:55;20.60;54.30
27823;DHT22;29019;47.630;8.262;2022-10-16T00:16:56;20.60;54.20
27823;DHT22;29019;47.630;8.262;2022-10-16T00:21:01;20.60;54.20
27823;DHT22;29019;47.630;8.262;2022-10-16T00:25:02;20.70;54.10
27823;DHT22;29019;47.630;8.262;2022-10-16T00:29:03;20.60;54.20
27823;DHT22;29019;47.630;8.262;2022-10-16T00:33:04;20.60;54.10
27823;DHT22;29019;47.630;8.262;2022-10-16T00:37:04;20.60;54.40
27823;DHT22;29019;47.630;8.262;2022-10-16T00:41:05;20.60;54.30
27823;DHT22;29019;47.630;8.262;2022-10-16T00:45:07;20.60;54.30
27823;DHT22;29019;47.630;8.262;2022-10-16T00:49:12;20.60;54.20
27823;DHT22;29019;47.630;8.262;2022-10-16T00:53:13;20.60;54.30
27823;DHT22;29019;47.630;8.262;2022-10-16T00:57:13;20.60;54.00
27823;DHT22;29019;47.630;8.262;2022-10-16T01:01:14;20.60;54.40
27823;DHT22;29019;47.630;8.262;2022-10-16T01:05:14;20.60;54.50
27823;DHT22;29019;47.630;8.262;2022-10-16T01:13:24;20.60;54.10
27823;DHT22;29019;47.630;8.262;2022-10-16T01:17:28;20.60;54.20
27823;DHT22;29019;47.630;8.262;2022-10-16T01:21:33;20.60;54.20
27823;DHT22;29019;47.630;8.262;2022-10-16T01:38:17;20.50;54.20
27823;DHT22;29019;47.630;8.262;2022-10-16T01:42:21;20.50;54.30
27823;DHT22;29019;47.630;8.262;2022-10-16T01:46:22;20.50;54.30
27823;DHT22;29019;47.630;8.262;2022-10-16T01:50:23;20.50;54.50
27823;DHT22;29019;47.630;8.262;2022-10-16T01:54:27;20.50;54.30
27823;DHT22;29019;47.630;8.262;2022-10-16T01:58:29;20.50;54.20
27823;DHT22;29019;47.630;8.262;2022-10-16T02:02:34;20.50;54.20
27823;DHT22;29019;47.630;8.262;2022-10-16T02:06:35;20.50;54.30
27823;DHT22;29019;47.630;8.262;2022-10-16T02:10:36;20.50;54.50
27823;DHT22;29019;47.630;8.262;2022-10-16T02:14:37;20.50;54.40
27823;DHT22;29019;47.630;8.262;2022-10-16T02:18:38;20.50;54.30
27823;DHT22;29019;47.630;8.262;2022-10-16T02:22:40;20.40;54.20
27823;DHT22;29019;47.630;8.262;2022-10-16T02:26:48;20.50;54.20
27823;DHT22;29019;47.630;8.262;2022-10-16T02:30:58;20.40;54.30
27823;DHT22;29019;47.630;8.262;2022-10-16T02:35:00;20.40;54.30
27823;DHT22;29019;47.630;8.262;2022-10-16T02:39:01;20.40;54.20
27823;DHT22;29019;47.630;8.262;2022-10-16T02:43:02;20.40;54.30
27823;DHT22;29019;47.630;8.262;2022-10-16T02:47:03;20.40;54.30
27823;DHT22;29019;47.630;8.262;2022-10-16T02:51:03;20.40;54.30
27823;DHT22;29019;47.630;8.262;2022-10-16T02:59:42;20.40;54.40
27823;DHT22;29019;47.630;8.262;2022-10-16T03:03:42;20.40;54.30
27823;DHT22;29019;47.630;8.262;2022-10-16T03:07:43;20.40;54.30
27823;DHT22;29019;47.630;8.262;2022-10-16T03:11:43;20.40;54.20
27823;DHT22;29019;47.630;8.262;2022-10-16T03:15:44;20.40;54.20
27823;DHT22;29019;47.630;8.262;2022-10-16T03:19:44;20.40;54.00
27823;DHT22;29019;47.630;8.262;2022-10-16T03:23:45;20.40;54.00
27823;DHT22;29019;47.630;8.262;2022-10-16T03:27:45;20.40;54.00
27823;DHT22;29019;47.630;8.262;2022-10-16T03:31:46;20.40;53.90
27823;DHT22;29019;47.630;8.262;2022-10-16T03:35:52;20.40;53.90
27823;DHT22;29019;47.630;8.262;2022-10-16T03:39:53;20.40;53.80
27823;DHT22;29019;47.630;8.262;2022-10-16T03:43:53;20.40;53.90
27823;DHT22;29019;47.630;8.262;2022-10-16T03:47:54;20.30;53.70
27823;DHT22;29019;47.630;8.262;2022-10-16T03:51:54;20.40;53.90
27823;DHT22;29019;47.630;8.262;2022-10-16T03:55:55;20.40;53.80
27823;DHT22;29019;47.630;8.262;2022-10-16T03:59:55;20.40;53.70
27823;DHT22;29019;47.630;8.262;2022-10-16T04:03:56;20.40;53.80
27823;DHT22;29019;47.630;8.262;2022-10-16T04:07:56;20.30;53.80
27823;DHT22;29019;47.630;8.262;2022-10-16T04:11:56;20.40;53.70
27823;DHT22;29019;47.630;8.262;2022-10-16T04:15:57;20.30;53.80
27823;DHT22;29019;47.630;8.262;2022-10-16T04:19:57;20.30;53.60
27823;DHT22;29019;47.630;8.262;2022-10-16T04:23:58;20.30;53.70
27823;DHT22;29019;47.630;8.262;2022-10-16T04:27:58;20.30;53.70
27823;DHT22;29019;47.630;8.262;2022-10-16T04:31:59;20.30;53.60
27823;DHT22;29019;47.630;8.262;2022-10-16T04:35:59;20.30;53.60
27823;DHT22;29019;47.630;8.262;2022-10-16T04:40:00;20.30;53.60
27823;DHT22;29019;47.630;8.262;2022-10-16T04:44:01;20.30;53.70
27823;DHT22;29019;47.630;8.262;2022-10-16T04:48:01;20.30;53.60
27823;DHT22;29019;47.630;8.262;2022-10-16T04:52:01;20.30;53.70
27823;DHT22;29019;47.630;8.262;2022-10-16T04:56:02;20.30;53.80
27823;DHT22;29019;47.630;8.262;2022-10-16T05:00:03;20.30;53.80
27823;DHT22;29019;47.630;8.262;2022-10-16T05:04:04;20.30;53.70
27823;DHT22;29019;47.630;8.262;2022-10-16T05:08:04;20.30;53.70
27823;DHT22;29019;47.630;8.262;2022-10-16T05:12:05;20.30;53.60
27823;DHT22;29019;47.630;8.262;2022-10-16T05:16:05;20.30;53.70
27823;DHT22;29019;47.630;8.262;2022-10-16T05:20:06;20.30;53.80
27823;DHT22;29019;47.630;8.262;2022-10-16T05:24:06;20.30;53.80
27823;DHT22;29019;47.630;8.262;2022-10-16T05:28:07;20.30;53.70
27823;DHT22;29019;47.630;8.262;2022-10-16T05:32:08;20.30;53.70
27823;DHT22;29019;47.630;8.262;2022-10-16T05:36:08;20.30;53.70
27823;DHT22;29019;47.630;8.262;2022-10-16T05:40:09;20.30;53.70
27823;DHT22;29019;47.630;8.262;2022-10-16T05:44:10;20.30;53.60
27823;DHT22;29019;47.630;8.262;2022-10-16T05:48:10;20.20;53.60
27823;DHT22;29019;47.630;8.262;2022-10-16T05:52:11;20.20;53.60
27823;DHT22;29019;47.630;8.262;2022-10-16T05:56:11;20.30;53.60
27823;DHT22;29019;47.630;8.262;2022-10-16T06:00:13;20.20;53.60
27823;DHT22;29019;47.630;8.262;2022-10-16T06:04:13;20.20;53.60
27823;DHT22;29019;47.630;8.262;2022-10-16T06:08:13;20.20;53.70
27823;DHT22;29019;47.630;8.262;2022-10-16T06:12:14;20.30;53.60
27823;DHT22;29019;47.630;8.262;2022-10-16T06:16:14;20.20;53.70
27823;DHT22;29019;47.630;8.262;2022-10-16T06:20:15;20.20;53.60
27823;DHT22;29019;47.630;8.262;2022-10-16T06:24:15;20.20;53.60
27823;DHT22;29019;47.630;8.262;2022-10-16T06:28:16;20.20;53.60
27823;DHT22;29019;47.630;8.262;2022-10-16T06:32:16;20.20;53.60
27823;DHT22;29019;47.630;8.262;2022-10-16T06:36:17;20.20;53.60
27823;DHT22;29019;47.630;8.262;2022-10-16T06:40:17;20.20;53.60
27823;DHT22;29019;47.630;8.262;2022-10-16T06:44:18;20.20;53.60
27823;DHT22;29019;47.630;8.262;2022-10-16T06:48:18;20.20;53.60
27823;DHT22;29019;47.630;8.262;2022-10-16T06:52:19;20.20;53.60
27823;DHT22;29019;47.630;8.262;2022-10-16T06:56:20;20.20;53.60
27823;DHT22;29019;47.630;8.262;2022-10-16T07:00:21;20.20;53.60
27823;DHT22;29019;47.630;8.262;2022-10-16T07:04:22;20.20;53.60
27823;DHT22;29019;47.630;8.262;2022-10-16T07:08:22;20.20;53.60
27823;DHT22;29019;47.630;8.262;2022-10-16T07:12:23;20.20;53.50
27823;DHT22;29019;47.630;8.262;2022-10-16T07:16:24;20.20;53.50
27823;DHT22;29019;47.630;8.262;2022-10-16T07:20:25;20.20;53.50
27823;DHT22;29019;47.630;8.262;2022-10-16T07:24:25;20.20;53.40
27823;DHT22;29019;47.630;8.262;2022-10-16T07:28:26;20.20;53.40
27823;DHT22;29019;47.630;8.262;2022-10-16T07:32:27;20.30;53.40
27823;DHT22;29019;47.630;8.262;2022-10-16T07:36:27;20.30;53.30
27823;DHT22;29019;47.630;8.262;2022-10-16T07:40:28;20.30;53.20
27823;DHT22;29019;47.630;8.262;2022-10-16T07:44:28;20.40;53.20
27823;DHT22;29019;47.630;8.262;2022-10-16T07:48:31;20.40;53.20
27823;DHT22;29019;47.630;8.262;2022-10-16T07:52:32;20.40;53.20
27823;DHT22;29019;47.630;8.262;2022-10-16T07:56:32;20.40;53.20
27823;DHT22;29019;47.630;8.262;2022-10-16T08:00:33;20.40;53.20
27823;DHT22;29019;47.630;8.262;2022-10-16T08:04:33;20.40;53.20
27823;DHT22;29019;47.630;8.262;2022-10-16T08:08:34;20.40;53.30
27823;DHT22;29019;47.630;8.262;2022-10-16T08:12:35;20.40;53.30
27823;DHT22;29019;47.630;8.262;2022-10-16T08:16:35;20.30;53.20
27823;DHT22;29019;47.630;8.262;2022-10-16T08:20:36;20.40;53.20
27823;DHT22;29019;47.630;8.262;2022-10-16T08:24:36;20.40;53.30
27823;DHT22;29019;47.630;8.262;2022-10-16T08:28:37;20.40;53.30
27823;DHT22;29019;47.630;8.262;2022-10-16T08:32:37;20.40;53.30
27823;DHT22;29019;47.630;8.262;2022-10-16T08:36:38;20.30;53.30
27823;DHT22;29019;47.630;8.262;2022-10-16T08:40:39;20.30;53.20
27823;DHT22;29019;47.630;8.262;2022-10-16T08:44:55;20.40;53.30
27823;DHT22;29019;47.630;8.262;2022-10-16T08:48:57;20.40;53.30
27823;DHT22;29019;47.630;8.262;2022-10-16T08:52:58;20.40;53.30
27823;DHT22;29019;47.630;8.262;2022-10-16T08:57:12;20.40;53.30
27823;DHT22;29019;47.630;8.262;2022-10-16T09:01:14;20.40;53.40
27823;DHT22;29019;47.630;8.262;2022-10-16T09:05:24;20.40;53.30
27823;DHT22;29019;47.630;8.262;2022-10-16T09:14:07;20.40;53.30
27823;DHT22;29019;47.630;8.262;2022-10-16T09:22:21;20.40;53.30
27823;DHT22;29019;47.630;8.262;2022-10-16T09:26:23;20.40;53.30
27823;DHT22;29019;47.630;8.262;2022-10-16T09:30:25;20.40;53.30
27823;DHT22;29019;47.630;8.262;2022-10-16T09:38:28;20.50;53.30
27823;DHT22;29019;47.630;8.262;2022-10-16T09:42:34;20.50;53.30
27823;DHT22;29019;47.630;8.262;2022-10-16T09:46:35;20.50;53.30
27823;DHT22;29019;47.630;8.262;2022-10-16T09:50:37;20.50;53.30
27823;DHT22;29019;47.630;8.262;2022-10-16T09:54:48;20.50;53.20
27823;DHT22;29019;47.630;8.262;2022-10-16T09:58:49;20.60;53.30
27823;DHT22;29019;47.630;8.262;2022-10-16T10:02:51;20.50;53.20
27823;DHT22;29019;47.630;8.262;2022-10-16T10:06:55;20.60;53.30
27823;DHT22;29019;47.630;8.262;2022-10-16T10:10:56;20.60;53.20
27823;DHT22;29019;47.630;8.262;2022-10-16T10:15:04;20.60;53.20
27823;DHT22;29019;47.630;8.262;2022-10-16T10:19:12;20.60;53.20
27823;DHT22;29019;47.630;8.262;2022-10-16T10:23:23;20.60;53.20
27823;DHT22;29019;47.630;8.262;2022-10-16T10:27:32;20.60;53.20
27823;DHT22;29019;47.630;8.262;2022-10-16T10:36:41;20.60;53.10
27823;DHT22;29019;47.630;8.262;2022-10-16T10:40:16;20.60;53.10
27823;DHT22;29019;47.630;8.262;2022-10-16T11:01:12;20.70;53.00
27823;DHT22;29019;47.630;8.262;2022-10-16T11:09:23;20.70;53.00
27823;DHT22;29019;47.630;8.262;2022-10-16T11:13:35;20.70;53.00
27823;DHT22;29019;47.630;8.262;2022-10-16T11:17:39;20.70;52.90
27823;DHT22;29019;47.630;8.262;2022-10-16T11:21:43;20.70;52.90
27823;DHT22;29019;47.630;8.262;2022-10-16T11:25:44;20.80;52.90
27823;DHT22;29019;47.630;8.262;2022-10-16T11:30:05;20.80;52.90
27823;DHT22;29019;47.630;8.262;2022-10-16T11:42:39;20.80;52.90
27823;DHT22;29019;47.630;8.262;2022-10-16T11:46:43;20.90;52.90
27823;DHT22;29019;47.630;8.262;2022-10-16T11:50:50;20.90;53.00
27823;DHT22;29019;47.630;8.262;2022-10-16T11:55:35;20.90;52.80
27823;DHT22;29019;47.630;8.262;2022-10-16T11:59:33;20.90;52.90
27823;DHT22;29019;47.630;8.262;2022-10-16T12:03:39;20.90;52.90
27823;DHT22;29019;47.630;8.262;2022-10-16T12:07:46;20.90;52.90
27823;DHT22;29019;47.630;8.262;2022-10-16T12:11:48;20.90;52.90
27823;DHT22;29019;47.630;8.262;2022-10-16T12:15:48;20.90;52.80
27823;DHT22;29019;47.630;8.262;2022-10-16T12:20:18;20.90;52.90
27823;DHT22;29019;47.630;8.262;2022-10-16T12:28:32;20.90;52.80
27823;DHT22;29019;47.630;8.262;2022-10-16T12:32:34;20.90;52.80
27823;DHT22;29019;47.630;8.262;2022-10-16T12:36:35;20.90;52.80
27823;DHT22;29019;47.630;8.262;2022-10-16T12:40:36;21.00;52.90
27823;DHT22;29019;47.630;8.262;2022-10-16T12:44:37;21.00;52.80
27823;DHT22;29019;47.630;8.262;2022-10-16T12:48:38;21.00;52.80
27823;DHT22;29019;47.630;8.262;2022-10-16T12:52:39;20.90;52.80
27823;DHT22;29019;47.630;8.262;2022-10-16T12:56:43;21.00;52.80
27823;DHT22;29019;47.630;8.262;2022-10-16T13:00:48;21.00;52.70
27823;DHT22;29019;47.630;8.262;2022-10-16T13:21:54;21.10;52.70
27823;DHT22;29019;47.630;8.262;2022-10-16T13:30:13;21.00;52.60
27823;DHT22;29019;47.630;8.262;2022-10-16T13:34:17;21.00;52.70
27823;DHT22;29019;47.630;8.262;2022-10-16T13:38:19;21.10;52.70
27823;DHT22;29019;47.630;8.262;2022-10-16T13:42:26;21.00;52.60
27823;DHT22;29019;47.630;8.262;2022-10-16T13:46:27;21.10;52.70
27823;DHT22;29019;47.630;8.262;2022-10-16T13:50:29;21.10;52.80
27823;DHT22;29019;47.630;8.262;2022-10-16T13:54:30;21.10;52.60
27823;DHT22;29019;47.630;8.262;2022-10-16T13:58:31;21.10;52.50
27823;DHT22;29019;47.630;8.262;2022-10-16T14:02:35;21.10;52.50
27823;DHT22;29019;47.630;8.262;2022-10-16T14:06:39;21.10;52.40
27823;DHT22;29019;47.630;8.262;2022-10-16T14:10:40;21.20;52.50
27823;DHT22;29019;47.630;8.262;2022-10-16T14:14:48;21.10;52.50
27823;DHT22;29019;47.630;8.262;2022-10-16T14:19:03;21.20;52.50
27823;DHT22;29019;47.630;8.262;2022-10-16T14:23:22;21.10;52.50
27823;DHT22;29019;47.630;8.262;2022-10-16T14:27:31;21.20;52.60
27823;DHT22;29019;47.630;8.262;2022-10-16T14:40:14;21.20;52.50
27823;DHT22;29019;47.630;8.262;2022-10-16T14:44:15;21.20;52.60
27823;DHT22;29019;47.630;8.262;2022-10-16T14:48:17;21.20;52.50
27823;DHT22;29019;47.630;8.262;2022-10-16T14:52:18;21.20;52.50
27823;DHT22;29019;47.630;8.262;2022-10-16T14:56:19;21.20;52.50
27823;DHT22;29019;47.630;8.262;2022-10-16T15:00:22;21.20;52.50
27823;DHT22;29019;47.630;8.262;2022-10-16T15:04:23;21.20;52.50
27823;DHT22;29019;47.630;8.262;2022-10-16T15:08:23;21.20;52.50
27823;DHT22;29019;47.630;8.262;2022-10-16T15:12:24;21.20;52.50
27823;DHT22;29019;47.630;8.262;2022-10-16T15:16:24;21.20;52.50
27823;DHT22;29019;47.630;8.262;2022-10-16T15:20:26;21.20;52.50
27823;DHT22;29019;47.630;8.262;2022-10-16T15:24:26;21.20;52.50
27823;DHT22;29019;47.630;8.262;2022-10-16T15:28:26;21.20;52.50
27823;DHT22;29019;47.630;8.262;2022-10-16T15:32:27;21.20;52.50
27823;DHT22;29019;47.630;8.262;2022-10-16T15:36:28;21.20;52.40
27823;DHT22;29019;47.630;8.262;2022-10-16T15:40:29;21.20;52.50
27823;DHT22;29019;47.630;8.262;2022-10-16T15:44:30;21.20;52.50
27823;DHT22;29019;47.630;8.262;2022-10-16T15:48:31;21.20;52.50
27823;DHT22;29019;47.630;8.262;2022-10-16T15:52:31;21.20;52.40
27823;DHT22;29019;47.630;8.262;2022-10-16T15:56:32;21.20;52.60
27823;DHT22;29019;47.630;8.262;2022-10-16T16:00:33;21.20;52.60
27823;DHT22;29019;47.630;8.262;2022-10-16T16:04:33;21.20;52.70
27823;DHT22;29019;47.630;8.262;2022-10-16T16:08:34;21.20;52.70
27823;DHT22;29019;47.630;8.262;2022-10-16T16:12:35;21.20;52.60
27823;DHT22;29019;47.630;8.262;2022-10-16T16:16:37;21.20;52.70
27823;DHT22;29019;47.630;8.262;2022-10-16T16:20:38;21.20;52.80
27823;DHT22;29019;47.630;8.262;2022-10-16T16:24:38;21.20;53.20
27823;DHT22;29019;47.630;8.262;2022-10-16T16:28:39;21.10;52.80
27823;DHT22;29019;47.630;8.262;2022-10-16T16:32:40;21.20;52.90
27823;DHT22;29019;47.630;8.262;2022-10-16T16:36:40;21.10;52.80
27823;DHT22;29019;47.630;8.262;2022-10-16T16:40:41;21.10;53.30
27823;DHT22;29019;47.630;8.262;2022-10-16T16:44:41;21.10;52.80
27823;DHT22;29019;47.630;8.262;2022-10-16T16:48:42;21.10;52.90
27823;DHT22;29019;47.630;8.262;2022-10-16T16:52:43;21.10;52.90
27823;DHT22;29019;47.630;8.262;2022-10-16T16:56:43;21.10;52.90
27823;DHT22;29019;47.630;8.262;2022-10-16T17:00:45;21.10;52.90
27823;DHT22;29019;47.630;8.262;2022-10-16T17:04:45;21.10;52.90
27823;DHT22;29019;47.630;8.262;2022-10-16T17:08:46;21.10;53.00
27823;DHT22;29019;47.630;8.262;2022-10-16T17:12:46;21.10;53.00
27823;DHT22;29019;47.630;8.262;2022-10-16T17:16:46;21.10;53.00
27823;DHT22;29019;47.630;8.262;2022-10-16T17:20:49;21.00;53.00
27823;DHT22;29019;47.630;8.262;2022-10-16T17:24:50;21.00;53.00
27823;DHT22;29019;47.630;8.262;2022-10-16T17:28:52;21.00;53.00
27823;DHT22;29019;47.630;8.262;2022-10-16T17:32:52;21.00;53.00
27823;DHT22;29019;47.630;8.262;2022-10-16T17:36:53;21.00;53.00
27823;DHT22;29019;47.630;8.262;2022-10-16T17:40:53;21.00;53.00
27823;DHT22;29019;47.630;8.262;2022-10-16T17:44:54;21.00;53.00
27823;DHT22;29019;47.630;8.262;2022-10-16T17:48:54;21.00;53.00
27823;DHT22;29019;47.630;8.262;2022-10-16T17:52:55;21.00;53.00
27823;DHT22;29019;47.630;8.262;2022-10-16T17:56:55;21.00;53.10
27823;DHT22;29019;47.630;8.262;2022-10-16T18:00:56;21.00;53.00
27823;DHT22;29019;47.630;8.262;2022-10-16T18:04:56;21.00;53.00
27823;DHT22;29019;47.630;8.262;2022-10-16T18:08:57;21.00;53.10
27823;DHT22;29019;47.630;8.262;2022-10-16T18:12:58;21.00;53.10
27823;DHT22;29019;47.630;8.262;2022-10-16T18:16:58;21.00;53.10
27823;DHT22;29019;47.630;8.262;2022-10-16T18:20:59;21.00;53.00
27823;DHT22;29019;47.630;8.262;2022-10-16T18:25:06;21.00;53.00
27823;DHT22;29019;47.630;8.262;2022-10-16T18:29:07;21.00;53.00
27823;DHT22;29019;47.630;8.262;2022-10-16T18:33:09;21.00;53.00
27823;DHT22;29019;47.630;8.262;2022-10-16T18:37:09;21.00;53.10
27823;DHT22;29019;47.630;8.262;2022-10-16T18:41:11;21.00;53.00
27823;DHT22;29019;47.630;8.262;2022-10-16T18:45:12;21.00;53.10
27823;DHT22;29019;47.630;8.262;2022-10-16T18:49:12;21.00;53.00
27823;DHT22;29019;47.630;8.262;2022-10-16T18:53:12;21.00;53.00
27823;DHT22;29019;47.630;8.262;2022-10-16T18:57:14;21.00;53.00
27823;DHT22;29019;47.630;8.262;2022-10-16T19:01:18;21.00;53.00
27823;DHT22;29019;47.630;8.262;2022-10-16T19:05:21;21.00;53.00
27823;DHT22;29019;47.630;8.262;2022-10-16T19:09:22;20.90;52.90
27823;DHT22;29019;47.630;8.262;2022-10-16T19:13:23;21.00;53.00
27823;DHT22;29019;47.630;8.262;2022-10-16T19:17:23;21.00;53.10
27823;DHT22;29019;47.630;8.262;2022-10-16T19:21:24;21.00;53.30
27823;DHT22;29019;47.630;8.262;2022-10-16T19:25:25;20.90;53.00
27823;DHT22;29019;47.630;8.262;2022-10-16T19:29:27;21.00;53.00
27823;DHT22;29019;47.630;8.262;2022-10-16T19:33:27;21.00;53.00
27823;DHT22;29019;47.630;8.262;2022-10-16T19:37:28;21.00;53.10
27823;DHT22;29019;47.630;8.262;2022-10-16T19:41:29;20.90;53.00
27823;DHT22;29019;47.630;8.262;2022-10-16T19:45:29;21.00;53.00
27823;DHT22;29019;47.630;8.262;2022-10-16T19:49:30;21.00;53.10
27823;DHT22;29019;47.630;8.262;2022-10-16T19:53:30;20.90;52.90
27823;DHT22;29019;47.630;8.262;2022-10-16T19:57:34;20.90;53.00
27823;DHT22;29019;47.630;8.262;2022-10-16T20:01:34;20.90;53.00
27823;DHT22;29019;47.630;8.262;2022-10-16T20:05:35;20.90;53.10
27823;DHT22;29019;47.630;8.262;2022-10-16T20:09:35;20.90;53.00
27823;DHT22;29019;47.630;8.262;2022-10-16T20:13:36;20.90;53.00
27823;DHT22;29019;47.630;8.262;2022-10-16T20:17:36;20.90;53.00
27823;DHT22;29019;47.630;8.262;2022-10-16T20:21:37;20.90;52.90
27823;DHT22;29019;47.630;8.262;2022-10-16T20:25:39;20.90;52.90
27823;DHT22;29019;47.630;8.262;2022-10-16T20:29:39;20.90;52.90
27823;DHT22;29019;47.630;8.262;2022-10-16T20:33:40;20.90;53.00
27823;DHT22;29019;47.630;8.262;2022-10-16T20:37:41;20.90;53.00
27823;DHT22;29019;47.630;8.262;2022-10-16T20:41:43;20.90;52.90
27823;DHT22;29019;47.630;8.262;2022-10-16T20:45:44;20.90;52.90
27823;DHT22;29019;47.630;8.262;2022-10-16T20:49:45;20.90;53.00
27823;DHT22;29019;47.630;8.262;2022-10-16T20:53:46;20.90;52.90
27823;DHT22;29019;47.630;8.262;2022-10-16T20:57:47;20.90;52.90
27823;DHT22;29019;47.630;8.262;2022-10-16T21:01:47;20.90;53.00
27823;DHT22;29019;47.630;8.262;2022-10-16T21:05:48;20.90;52.90
27823;DHT22;29019;47.630;8.262;2022-10-16T21:09:48;20.90;53.00
27823;DHT22;29019;47.630;8.262;2022-10-16T21:13:50;20.90;52.90
27823;DHT22;29019;47.630;8.262;2022-10-16T21:17:51;20.80;52.90
27823;DHT22;29019;47.630;8.262;2022-10-16T21:21:52;20.80;52.90
27823;DHT22;29019;47.630;8.262;2022-10-16T21:25:52;20.90;53.00
27823;DHT22;29019;47.630;8.262;2022-10-16T21:29:53;20.80;53.00
27823;DHT22;29019;47.630;8.262;2022-10-16T21:33:54;20.80;53.00
27823;DHT22;29019;47.630;8.262;2022-10-16T21:37:55;20.80;53.00
27823;DHT22;29019;47.630;8.262;2022-10-16T21:41:56;20.80;52.90
27823;DHT22;29019;47.630;8.262;2022-10-16T21:45:56;20.80;52.90
27823;DHT22;29019;47.630;8.262;2022-10-16T21:49:56;20.80;52.90
27823;DHT22;29019;47.630;8.262;2022-10-16T21:53:57;20.80;53.00
27823;DHT22;29019;47.630;8.262;2022-10-16T21:57:57;20.80;53.00
27823;DHT22;29019;47.630;8.262;2022-10-16T22:01:58;20.80;52.90
27823;DHT22;29019;47.630;8.262;2022-10-16T22:06:02;20.70;52.80
27823;DHT22;29019;47.630;8.262;2022-10-16T22:10:03;20.80;52.90
27823;DHT22;29019;47.630;8.262;2022-10-16T22:14:08;20.70;52.80
27823;DHT22;29019;47.630;8.262;2022-10-16T22:18:09;20.80;53.10
27823;DHT22;29019;47.630;8.262;2022-10-16T22:22:10;20.70;52.80
27823;DHT22;29019;47.630;8.262;2022-10-16T22:26:10;20.70;53.20
27823;DHT22;29019;47.630;8.262;2022-10-16T22:30:11;20.70;52.90
27823;DHT22;29019;47.630;8.262;2022-10-16T22:34:12;20.70;52.80
27823;DHT22;29019;47.630;8.262;2022-10-16T22:38:12;20.70;52.90
27823;DHT22;29019;47.630;8.262;2022-10-16T22:42:13;20.70;52.90
27823;DHT22;29019;47.630;8.262;2022-10-16T22:46:15;20.70;52.90
27823;DHT22;29019;47.630;8.262;2022-10-16T22:50:16;20.70;52.90
27823;DHT22;29019;47.630;8.262;2022-10-16T22:54:16;20.70;52.90
27823;DHT22;29019;47.630;8.262;2022-10-16T22:58:16;20.60;52.70
27823;DHT22;29019;47.630;8.262;2022-10-16T23:02:17;20.40;52.40
27823;DHT22;29019;47.630;8.262;2022-10-16T23:06:17;20.20;52.80
27823;DHT22;29019;47.630;8.262;2022-10-16T23:10:18;20.00;52.50
27823;DHT22;29019;47.630;8.262;2022-10-16T23:14:19;19.80;52.30
27823;DHT22;29019;47.630;8.262;2022-10-16T23:18:20;19.70;53.00
27823;DHT22;29019;47.630;8.262;2022-10-16T23:22:20;19.70;53.70
27823;DHT22;29019;47.630;8.262;2022-10-16T23:26:22;19.90;53.90
27823;DHT22;29019;47.630;8.262;2022-10-16T23:30:23;20.10;53.70
27823;DHT22;29019;47.630;8.262;2022-10-16T23:34:24;20.20;53.60
27823;DHT22;29019;47.630;8.262;2022-10-16T23:38:24;20.30;54.20
27823;DHT22;29019;47.630;8.262;2022-10-16T23:42:25;20.40;53.70
27823;DHT22;29019;47.630;8.262;2022-10-16T23:46:25;20.40;53.60
27823;DHT22;29019;47.630;8.262;2022-10-16T23:50:26;20.50;53.80
27823;DHT22;29019;47.630;8.262;2022-10-16T23:54:28;20.50;53.90
27823;DHT22;29019;47.630;8.262;2022-10-16T23:58:29;20.50;53.80
